National Weather Service Raw Text Product

Displaying AFOS PIL: TAFOTM Received: 2018-03-08 05:25 UTC


004 
FTUS43 KDMX 080525
TAFOTM
TAF
KOTM 080525Z 0806/0906 30012KT P6SM FEW250
     FM090000 35004KT P6SM SCT250=